createdAt,value
2022-09-03T00:02:45.780Z,1.95
2022-09-03T00:05:27.616Z,1.80
2022-09-03T00:08:10.071Z,1.87
2022-09-03T00:10:44.530Z,2.00
2022-09-03T00:13:16.449Z,2.10
2022-09-03T00:15:43.514Z,2.17
2022-09-03T00:18:18.394Z,1.77
2022-09-03T00:20:52.834Z,2.10
2022-09-03T00:23:24.997Z,2.40
2022-09-03T00:25:56.044Z,1.80
2022-09-03T00:28:29.955Z,2.27
2022-09-03T00:31:11.964Z,1.95
2022-09-03T00:33:42.542Z,2.10
2022-09-03T00:36:19.798Z,2.38
2022-09-03T00:38:47.114Z,2.20
2022-09-03T00:41:41.489Z,2.05
2022-09-03T00:44:32.322Z,2.30
2022-09-03T00:47:14.025Z,2.00
2022-09-03T00:50:06.396Z,1.97
2022-09-03T00:53:23.981Z,2.10
2022-09-03T00:56:16.187Z,2.20
2022-09-03T00:59:06.330Z,1.88
2022-09-03T01:01:42.273Z,2.00
2022-09-03T01:04:36.540Z,2.30
2022-09-03T01:07:28.359Z,2.25
2022-09-03T01:10:16.193Z,2.25
2022-09-03T01:12:58.300Z,2.30
2022-09-03T01:15:43.401Z,2.42
2022-09-03T01:18:34.569Z,2.50
2022-09-03T01:21:34.956Z,2.38
2022-09-03T01:24:29.999Z,2.60
2022-09-03T01:27:30.581Z,2.30
2022-09-03T01:30:19.684Z,2.53
2022-09-03T01:33:01.619Z,2.50
2022-09-03T01:36:03.747Z,2.60
2022-09-03T01:38:48.531Z,2.70
2022-09-03T01:41:57.033Z,2.70
2022-09-03T01:44:45.450Z,2.38
2022-09-03T01:47:15.158Z,2.33
2022-09-03T01:49:57.920Z,2.38
2022-09-03T01:52:53.617Z,2.50
2022-09-03T01:55:26.453Z,2.47
2022-09-03T01:57:58.951Z,2.47
2022-09-03T02:02:53.765Z,3.13
2022-09-03T02:05:25.833Z,2.60
2022-09-03T02:08:03.630Z,2.25
2022-09-03T02:10:41.673Z,2.45
2022-09-03T02:13:16.674Z,2.70
2022-09-03T02:15:49.535Z,2.45
2022-09-03T02:18:26.112Z,2.78
2022-09-03T02:20:54.596Z,2.42
2022-09-03T02:23:27.674Z,2.90
2022-09-03T02:26:01.742Z,2.40
2022-09-03T02:28:30.987Z,3.08
2022-09-03T02:30:58.506Z,2.55
2022-09-03T02:33:25.556Z,2.65
2022-09-03T02:35:53.503Z,2.88
2022-09-03T02:38:25.745Z,2.95
2022-09-03T02:43:41.741Z,3.20
2022-09-03T02:46:13.517Z,2.88
2022-09-03T02:48:40.437Z,2.90
2022-09-03T02:51:14.352Z,3.03
2022-09-03T02:53:42.880Z,3.47
2022-09-03T02:56:10.407Z,3.45
2022-09-03T02:58:37.322Z,2.97
2022-09-03T03:01:04.795Z,3.08
2022-09-03T03:03:32.084Z,3.50
2022-09-03T03:06:02.472Z,3.33
2022-09-03T03:08:30.386Z,3.15
2022-09-03T03:10:59.481Z,3.45
2022-09-03T03:13:31.061Z,3.80
2022-09-03T03:16:03.039Z,3.65
2022-09-03T03:18:29.927Z,3.60
2022-09-03T03:20:56.714Z,3.05
2022-09-03T03:23:24.189Z,3.72
2022-09-03T03:25:51.011Z,3.80
2022-09-03T03:28:20.356Z,3.40
2022-09-03T03:30:48.665Z,3.50
2022-09-03T03:33:15.799Z,3.70
2022-09-03T03:35:42.803Z,3.95
2022-09-03T03:38:09.775Z,3.83
2022-09-03T03:40:40.867Z,3.97
2022-09-03T03:43:07.824Z,3.53
2022-09-03T03:45:34.830Z,4.03
2022-09-03T03:48:01.677Z,3.60
2022-09-03T03:50:28.450Z,3.67
2022-09-03T03:52:55.344Z,3.65
2022-09-03T03:55:22.889Z,3.70
2022-09-03T03:57:53.837Z,3.67
2022-09-03T04:00:20.900Z,3.20
2022-09-03T04:02:47.826Z,3.10
2022-09-03T04:05:15.181Z,3.65
2022-09-03T04:07:42.027Z,3.92
2022-09-03T04:10:09.329Z,3.90
2022-09-03T04:12:36.209Z,3.83
2022-09-03T04:15:03.150Z,3.67
2022-09-03T04:17:29.970Z,3.88
2022-09-03T04:19:56.784Z,4.00
2022-09-03T04:22:23.715Z,4.40
2022-09-03T04:24:50.524Z,3.70
2022-09-03T04:27:17.386Z,3.60
2022-09-03T04:29:44.171Z,4.10
2022-09-03T04:32:29.512Z,3.83
2022-09-03T04:34:57.498Z,3.50
2022-09-03T04:37:24.371Z,3.25
2022-09-03T04:39:51.235Z,3.47
2022-09-03T04:42:18.154Z,3.35
2022-09-03T04:44:45.003Z,3.05
2022-09-03T04:47:11.809Z,3.65
2022-09-03T04:49:40.238Z,3.03
2022-09-03T04:52:07.048Z,2.70
2022-09-03T04:54:34.094Z,2.50
2022-09-03T04:57:00.870Z,2.30
2022-09-03T04:59:27.929Z,2.40
2022-09-03T05:01:56.427Z,2.97
2022-09-03T05:04:23.263Z,2.50
2022-09-03T05:06:50.043Z,2.45
2022-09-03T05:09:16.949Z,2.35
2022-09-03T05:11:44.328Z,2.25
2022-09-03T05:14:12.727Z,2.60
2022-09-03T05:16:39.803Z,2.53
2022-09-03T05:19:08.129Z,2.38
2022-09-03T05:21:38.664Z,2.78
2022-09-03T05:24:05.678Z,2.88
2022-09-03T05:26:37.290Z,2.70
2022-09-03T05:29:08.584Z,2.90
2022-09-03T05:31:39.109Z,2.87
2022-09-03T05:34:06.544Z,2.80
2022-09-03T05:36:35.711Z,2.90
2022-09-03T05:39:05.336Z,2.50
2022-09-03T05:41:34.181Z,3.08
2022-09-03T05:44:01.405Z,5.43
2022-09-03T05:46:34.522Z,3.25
2022-09-03T05:49:03.138Z,3.13
2022-09-03T05:51:31.063Z,3.53
2022-09-03T05:53:58.795Z,3.80
2022-09-03T05:56:27.801Z,3.15
2022-09-03T05:58:57.737Z,2.85
2022-09-03T06:01:29.067Z,3.20
2022-09-03T06:03:57.873Z,3.30
2022-09-03T06:06:26.165Z,3.28
2022-09-03T06:08:58.310Z,3.65
2022-09-03T06:11:28.271Z,3.05
2022-09-03T06:14:01.511Z,2.67
2022-09-03T06:16:33.034Z,2.70
2022-09-03T06:19:00.857Z,2.80
2022-09-03T06:21:28.871Z,3.20
2022-09-03T06:23:59.428Z,2.70
2022-09-03T06:26:30.536Z,2.72
2022-09-03T06:28:58.142Z,2.95
2022-09-03T06:31:26.036Z,3.15
2022-09-03T06:33:54.730Z,3.00
2022-09-03T06:36:23.139Z,2.85
2022-09-03T06:38:54.004Z,2.90
2022-09-03T06:41:26.373Z,2.85
2022-09-03T06:44:04.098Z,2.80
2022-09-03T06:46:33.205Z,2.65
2022-09-03T06:49:00.516Z,2.90
2022-09-03T06:51:29.961Z,2.33
2022-09-03T06:54:02.404Z,2.65
2022-09-03T06:56:29.756Z,2.70
2022-09-03T06:58:58.627Z,2.15
2022-09-03T07:01:31.392Z,2.50
2022-09-03T07:04:01.119Z,2.47
2022-09-03T07:06:31.026Z,2.42
2022-09-03T07:08:59.875Z,2.30
2022-09-03T07:11:29.412Z,2.60
2022-09-03T07:13:56.427Z,2.95
2022-09-03T07:16:25.777Z,2.83
2022-09-03T07:18:52.779Z,2.35
2022-09-03T07:21:22.997Z,3.00
2022-09-03T07:23:53.069Z,2.72
2022-09-03T07:26:22.660Z,2.20
2022-09-03T07:28:50.066Z,2.50
2022-09-03T07:31:19.820Z,2.58
2022-09-03T07:33:47.432Z,2.45
2022-09-03T07:36:17.023Z,2.58
2022-09-03T07:38:45.515Z,2.80
2022-09-03T07:41:17.604Z,2.60
2022-09-03T07:43:55.040Z,2.10
2022-09-03T07:46:25.784Z,2.30
2022-09-03T07:48:57.361Z,2.33
2022-09-03T07:51:26.831Z,2.45
2022-09-03T07:54:07.022Z,2.08
2022-09-03T07:56:37.906Z,2.35
2022-09-03T07:59:05.501Z,2.28
2022-09-03T08:01:33.953Z,1.90
2022-09-03T08:04:02.632Z,2.17
2022-09-03T08:06:30.954Z,2.10
2022-09-03T08:09:04.947Z,2.05
2022-09-03T08:11:36.144Z,2.50
2022-09-03T08:14:06.716Z,1.98
2022-09-03T08:16:47.437Z,2.60
2022-09-03T08:19:14.939Z,2.05
2022-09-03T08:21:42.279Z,1.67
2022-09-03T08:24:11.133Z,2.15
2022-09-03T08:26:41.744Z,2.53
2022-09-03T08:29:09.184Z,2.60
2022-09-03T08:31:36.853Z,2.00
2022-09-03T08:34:07.263Z,2.80
2022-09-03T08:36:38.859Z,2.80
2022-09-03T08:39:10.261Z,2.40
2022-09-03T08:42:28.423Z,2.38
2022-09-03T08:45:02.770Z,2.10
2022-09-03T08:47:58.757Z,2.17
2022-09-03T08:50:34.375Z,1.70
2022-09-03T08:53:03.993Z,2.00
2022-09-03T08:55:42.811Z,1.80
2022-09-03T08:58:18.655Z,1.75
2022-09-03T09:01:03.657Z,1.80
2022-09-03T09:03:48.892Z,1.85
2022-09-03T09:06:26.936Z,2.03
2022-09-03T09:09:02.812Z,2.30
2022-09-03T09:11:36.080Z,1.83
2022-09-03T09:14:10.914Z,2.30
2022-09-03T09:17:07.959Z,1.70
2022-09-03T09:19:37.521Z,1.75
2022-09-03T09:22:11.994Z,1.83
2022-09-03T09:24:45.037Z,1.60
2022-09-03T09:27:17.210Z,2.00
2022-09-03T09:29:48.234Z,2.08
2022-09-03T09:32:19.008Z,2.00
2022-09-03T09:34:51.997Z,2.35
2022-09-03T09:37:19.966Z,2.10
2022-09-03T09:40:00.961Z,1.95
2022-09-03T09:42:30.051Z,2.00
2022-09-03T09:44:56.832Z,1.92
2022-09-03T09:47:39.452Z,1.85
2022-09-03T09:50:25.018Z,1.70
2022-09-03T09:53:22.703Z,1.90
2022-09-03T09:55:58.224Z,2.00
2022-09-03T09:58:28.438Z,2.10
2022-09-03T10:01:26.155Z,2.10
2022-09-03T10:03:56.075Z,1.95
2022-09-03T10:06:50.897Z,2.10
2022-09-03T10:09:32.827Z,1.83
2022-09-03T10:12:11.154Z,1.90
2022-09-03T10:14:40.458Z,2.15
2022-09-03T10:17:21.439Z,1.90
2022-09-03T10:20:23.250Z,2.00
2022-09-03T10:22:57.655Z,1.67
2022-09-03T10:25:35.905Z,1.75
2022-09-03T10:28:03.627Z,1.67
2022-09-03T10:30:47.759Z,1.67
2022-09-03T10:33:23.099Z,2.00
2022-09-03T10:36:01.975Z,1.70
2022-09-03T10:38:34.695Z,1.83
2022-09-03T10:41:33.030Z,1.90
2022-09-03T10:44:03.247Z,1.80
2022-09-03T10:47:01.860Z,1.73
2022-09-03T10:49:56.194Z,1.70
2022-09-03T10:52:43.265Z,1.48
2022-09-03T10:55:47.132Z,1.73
2022-09-03T10:58:44.090Z,1.33
2022-09-03T11:01:55.407Z,1.73
2022-09-03T11:04:37.812Z,1.80
2022-09-03T11:07:09.868Z,1.55
2022-09-03T11:12:37.093Z,1.40
2022-09-03T11:15:16.182Z,1.50
2022-09-03T11:17:56.855Z,1.42
2022-09-03T11:20:26.013Z,1.63
2022-09-03T11:23:03.197Z,1.95
2022-09-03T11:25:36.538Z,1.65
2022-09-03T11:28:14.800Z,1.77
2022-09-03T11:31:06.125Z,1.50
2022-09-03T11:33:35.998Z,1.50
2022-09-03T11:36:06.870Z,1.50
2022-09-03T11:38:33.719Z,1.52
2022-09-03T11:41:26.424Z,2.20
2022-09-03T11:43:54.514Z,1.60
2022-09-03T11:46:21.907Z,1.58
2022-09-03T11:49:14.158Z,1.73
2022-09-03T11:54:13.684Z,1.60
2022-09-03T11:56:42.671Z,1.50
2022-09-03T11:59:40.242Z,1.48
2022-09-03T12:02:14.171Z,1.50
2022-09-03T12:05:06.008Z,1.60
2022-09-03T12:07:35.974Z,1.60
2022-09-03T12:10:20.253Z,1.88
2022-09-03T12:13:14.067Z,1.58
2022-09-03T12:15:53.163Z,1.52
2022-09-03T12:18:27.066Z,1.60
2022-09-03T12:20:55.634Z,1.60
2022-09-03T12:23:51.091Z,1.60
2022-09-03T12:26:27.465Z,1.40
2022-09-03T12:28:59.082Z,6.43
2022-09-03T12:31:32.101Z,7.25
2022-09-03T12:34:16.676Z,1.60
2022-09-03T12:36:46.349Z,1.60
2022-09-03T12:39:13.451Z,1.35
2022-09-03T12:41:51.719Z,1.40
2022-09-03T12:44:28.278Z,1.60
2022-09-03T12:50:11.823Z,1.40
2022-09-03T12:52:46.776Z,1.50
2022-09-03T12:55:35.142Z,1.60
2022-09-03T12:58:20.091Z,1.48
2022-09-03T13:01:09.594Z,1.45
2022-09-03T13:03:54.954Z,1.33
2022-09-03T13:06:24.870Z,1.60
2022-09-03T13:09:04.046Z,1.33
2022-09-03T13:11:34.157Z,1.30
2022-09-03T13:14:05.601Z,1.20
2022-09-03T13:16:44.149Z,1.70
2022-09-03T13:19:35.995Z,1.40
2022-09-03T13:22:32.071Z,1.35
2022-09-03T13:25:10.906Z,1.40
2022-09-03T13:27:47.056Z,1.42
2022-09-03T13:30:19.593Z,1.50
2022-09-03T13:33:13.662Z,1.65
2022-09-03T13:35:47.043Z,1.60
2022-09-03T13:38:37.069Z,1.65
2022-09-03T13:41:40.860Z,2.20
2022-09-03T13:44:22.868Z,1.60
2022-09-03T13:46:57.522Z,1.88
2022-09-03T13:50:00.661Z,1.90
2022-09-03T13:52:49.026Z,1.90
2022-09-03T13:55:35.757Z,1.80
2022-09-03T13:58:08.757Z,1.60
2022-09-03T14:00:35.507Z,1.30
2022-09-03T14:03:09.091Z,1.63
2022-09-03T14:05:44.266Z,1.88
2022-09-03T14:08:54.303Z,1.77
2022-09-03T14:14:13.673Z,1.70
2022-09-03T14:17:37.853Z,1.77
2022-09-03T14:20:23.536Z,1.70
2022-09-03T14:23:28.856Z,1.60
2022-09-03T14:25:57.325Z,1.67
2022-09-03T14:28:45.358Z,1.90
2022-09-03T14:31:13.278Z,1.58
2022-09-03T14:33:47.993Z,1.67
2022-09-03T14:36:14.676Z,1.90
2022-09-03T14:38:56.344Z,1.80
2022-09-03T14:41:33.894Z,1.50
2022-09-03T14:44:04.495Z,1.65
2022-09-03T14:46:54.346Z,1.90
2022-09-03T14:49:41.067Z,1.77
2022-09-03T14:52:20.033Z,1.40
2022-09-03T14:55:10.343Z,1.75
2022-09-03T14:57:37.112Z,1.90
2022-09-03T15:00:18.513Z,1.95
2022-09-03T15:02:59.021Z,1.85
2022-09-03T15:05:51.784Z,2.17
2022-09-03T15:08:47.810Z,1.60
2022-09-03T15:11:20.080Z,1.60
2022-09-03T15:14:13.148Z,1.50
2022-09-03T15:17:04.904Z,1.80
2022-09-03T15:19:44.814Z,1.65
2022-09-03T15:22:14.614Z,1.63
2022-09-03T15:25:05.881Z,1.80
2022-09-03T15:28:11.912Z,1.90
2022-09-03T15:30:51.120Z,2.13
2022-09-03T15:33:56.931Z,2.63
2022-09-03T15:36:35.225Z,1.65
2022-09-03T15:39:13.515Z,1.60
2022-09-03T15:41:53.746Z,2.10
2022-09-03T15:44:20.547Z,1.73
2022-09-03T15:46:50.833Z,1.70
2022-09-03T15:49:29.636Z,1.70
2022-09-03T15:52:30.849Z,1.90
2022-09-03T15:55:14.310Z,1.80
2022-09-03T15:58:05.052Z,1.77
2022-09-03T16:00:33.823Z,1.58
2022-09-03T16:03:13.693Z,1.70
2022-09-03T16:06:02.669Z,1.70
2022-09-03T16:08:34.158Z,2.50
2022-09-03T16:11:30.660Z,1.92
2022-09-03T16:14:15.685Z,1.50
2022-09-03T16:16:59.677Z,1.88
2022-09-03T16:19:35.403Z,1.70
2022-09-03T16:22:28.795Z,1.67
2022-09-03T16:25:07.350Z,1.70
2022-09-03T16:27:50.721Z,1.60
2022-09-03T16:30:43.580Z,1.90
2022-09-03T16:33:42.518Z,1.60
2022-09-03T16:36:11.996Z,1.60
2022-09-03T16:39:16.178Z,1.90
2022-09-03T16:41:54.782Z,2.63
2022-09-03T16:44:42.802Z,1.95
2022-09-03T16:47:32.466Z,2.10
2022-09-03T16:50:15.649Z,1.80
2022-09-03T16:52:53.203Z,2.10
2022-09-03T16:55:50.551Z,1.58
2022-09-03T16:58:53.451Z,1.67
2022-09-03T17:01:46.192Z,1.48
2022-09-03T17:04:45.584Z,1.70
2022-09-03T17:07:42.566Z,1.80
2022-09-03T17:10:36.826Z,1.90
2022-09-03T17:13:19.942Z,1.70
2022-09-03T17:15:55.918Z,1.75
2022-09-03T17:18:31.457Z,1.77
2022-09-03T17:21:32.484Z,1.83
2022-09-03T17:24:11.322Z,1.73
2022-09-03T17:26:52.238Z,2.20
2022-09-03T17:29:18.993Z,1.73
2022-09-03T17:31:55.232Z,2.13
2022-09-03T17:34:47.941Z,2.10
2022-09-03T17:37:44.818Z,1.90
2022-09-03T17:40:39.447Z,2.10
2022-09-03T17:43:18.293Z,1.98
2022-09-03T17:45:59.373Z,2.05
2022-09-03T17:48:45.578Z,2.38
2022-09-03T17:51:17.841Z,2.05
2022-09-03T17:53:54.192Z,1.92
2022-09-03T17:56:24.299Z,1.90
2022-09-03T17:59:35.133Z,1.95
2022-09-03T18:02:10.655Z,1.90
2022-09-03T18:05:08.394Z,2.08
2022-09-03T18:08:00.900Z,2.05
2022-09-03T18:10:39.883Z,2.03
2022-09-03T18:13:40.072Z,2.50
2022-09-03T18:16:12.223Z,2.85
2022-09-03T18:18:47.477Z,3.67
2022-09-03T18:21:42.195Z,4.65
2022-09-03T18:24:36.867Z,4.78
2022-09-03T18:27:31.076Z,3.90
2022-09-03T18:30:16.319Z,3.38
2022-09-03T18:33:02.340Z,2.78
2022-09-03T18:35:51.071Z,2.20
2022-09-03T18:38:45.635Z,2.10
2022-09-03T18:41:38.817Z,2.58
2022-09-03T18:45:06.352Z,2.53
2022-09-03T18:48:15.336Z,2.00
2022-09-03T18:51:22.443Z,2.08
2022-09-03T18:54:26.530Z,2.45
2022-09-03T18:57:12.940Z,2.00
2022-09-03T19:00:10.448Z,2.45
2022-09-03T19:02:55.558Z,2.15
2022-09-03T19:05:52.094Z,2.50
2022-09-03T19:08:50.758Z,2.28
2022-09-03T19:11:53.597Z,2.17
2022-09-03T19:14:43.865Z,2.53
2022-09-03T19:17:41.236Z,2.17
2022-09-03T19:20:50.474Z,2.17
2022-09-03T19:23:35.999Z,1.98
2022-09-03T19:26:56.225Z,2.17
2022-09-03T19:30:02.802Z,2.20
2022-09-03T19:33:13.882Z,2.10
2022-09-03T19:36:07.885Z,2.20
2022-09-03T19:39:03.058Z,2.33
2022-09-03T19:42:17.424Z,2.20
2022-09-03T19:45:40.433Z,2.13
2022-09-03T19:49:04.246Z,2.22
2022-09-03T19:52:10.135Z,2.40
2022-09-03T19:54:57.673Z,2.10
2022-09-03T19:57:44.654Z,2.15
2022-09-03T20:00:33.304Z,1.90
2022-09-03T20:03:21.090Z,2.28
2022-09-03T20:06:11.000Z,2.00
2022-09-03T20:08:57.516Z,2.08
2022-09-03T20:11:28.147Z,2.20
2022-09-03T20:14:16.247Z,2.20
2022-09-03T20:17:15.403Z,2.47
2022-09-03T20:20:25.155Z,1.90
2022-09-03T20:23:06.664Z,2.53
2022-09-03T20:25:41.723Z,2.55
2022-09-03T20:28:45.524Z,2.50
2022-09-03T20:31:29.839Z,2.40
2022-09-03T20:34:21.435Z,2.67
2022-09-03T20:37:05.539Z,2.90
2022-09-03T20:39:50.876Z,2.15
2022-09-03T20:42:29.789Z,2.05
2022-09-03T20:45:03.748Z,2.28
2022-09-03T20:48:00.384Z,2.80
2022-09-03T20:50:53.388Z,2.50
2022-09-03T20:53:57.168Z,2.80
2022-09-03T20:56:36.018Z,2.50
2022-09-03T20:59:33.969Z,2.15
2022-09-03T21:02:28.936Z,2.25
2022-09-03T21:05:14.215Z,2.40
2022-09-03T21:08:11.309Z,2.40
2022-09-03T21:10:45.489Z,2.50
2022-09-03T21:13:21.176Z,2.33
2022-09-03T21:15:58.001Z,2.50
2022-09-03T21:18:46.295Z,2.42
2022-09-03T21:21:22.160Z,8.32
2022-09-03T21:24:19.723Z,2.83
2022-09-03T21:26:52.079Z,2.70
2022-09-03T21:29:26.353Z,5.68
2022-09-03T21:32:19.227Z,2.72
2022-09-03T21:35:06.237Z,2.88
2022-09-03T21:37:39.819Z,2.75
2022-09-03T21:40:09.386Z,2.58
2022-09-03T21:42:59.714Z,2.72
2022-09-03T21:45:35.757Z,2.80
2022-09-03T21:48:25.407Z,2.20
2022-09-03T21:50:58.834Z,2.67
2022-09-03T21:53:47.556Z,2.80
2022-09-03T21:56:50.597Z,2.55
2022-09-03T21:59:38.870Z,2.60
2022-09-03T22:02:24.464Z,2.45
2022-09-03T22:04:52.652Z,2.83
2022-09-03T22:07:37.966Z,2.78
2022-09-03T22:10:14.069Z,2.50
2022-09-03T22:12:53.817Z,2.45
2022-09-03T22:15:21.754Z,2.45
2022-09-03T22:18:15.637Z,2.80
2022-09-03T22:20:56.277Z,2.95
2022-09-03T22:23:46.204Z,2.75
2022-09-03T22:26:45.199Z,2.22
2022-09-03T22:29:36.070Z,2.55
2022-09-03T22:32:08.864Z,2.70
2022-09-03T22:34:41.781Z,2.65
2022-09-03T22:37:26.607Z,2.63
2022-09-03T22:40:21.438Z,2.90
2022-09-03T22:42:58.832Z,2.63
2022-09-03T22:45:54.495Z,2.70
2022-09-03T22:48:36.950Z,2.95
2022-09-03T22:51:04.034Z,2.53
2022-09-03T22:53:39.604Z,2.70
2022-09-03T22:56:16.110Z,2.92
2022-09-03T22:58:55.779Z,2.70
2022-09-03T23:01:26.556Z,2.67
2022-09-03T23:04:11.840Z,2.70
2022-09-03T23:06:53.363Z,2.88
2022-09-03T23:09:25.253Z,2.50
2022-09-03T23:11:57.713Z,3.00
2022-09-03T23:14:41.386Z,2.53
2022-09-03T23:20:00.669Z,2.70
2022-09-03T23:22:34.305Z,2.90
2022-09-03T23:25:10.974Z,2.78
2022-09-03T23:27:55.464Z,2.80
2022-09-03T23:30:22.265Z,2.88
2022-09-03T23:32:57.167Z,2.83
2022-09-03T23:35:29.949Z,2.60
2022-09-03T23:38:05.497Z,3.10
2022-09-03T23:40:44.293Z,3.00
2022-09-03T23:43:19.286Z,2.70
2022-09-03T23:46:19.756Z,2.47
2022-09-03T23:49:05.608Z,2.95
2022-09-03T23:52:12.477Z,2.78
2022-09-03T23:54:40.416Z,2.70
2022-09-03T23:57:39.966Z,2.45
